Time;durP1;ratioP1;P1;durP2;ratioP2;P2;SDS_P1;SDS_P2;PMS_P1;PMS_P2;Temp;Humidity;BMP_temperature;BMP_pressure;BME280_temperature;BME280_humidity;BME280_pressure;Samples;Min_cycle;Max_cycle;Signal;HPM_P1;HPM_P2
2024/04/17 00:01:30;;;;;;;10.32;2.75;;;8.30;99.90;;;;;;4445622;26;20012;-66
2024/04/17 00:03:31;;;;;;;9.63;2.83;;;8.30;99.90;;;;;;4457947;26;20535;-67
2024/04/17 00:05:31;;;;;;;8.05;2.40;;;8.30;99.90;;;;;;4457463;26;20023;-66
2024/04/17 00:07:32;;;;;;;7.30;2.10;;;8.20;99.90;;;;;;4436338;26;20015;-66
2024/04/17 00:09:33;;;;;;;11.73;2.53;;;8.20;99.90;;;;;;4452341;26;20021;-66
2024/04/17 00:11:33;;;;;;;11.88;2.08;;;8.20;99.90;;;;;;4415056;26;20005;-66
2024/04/17 00:13:34;;;;;;;11.45;2.67;;;8.20;99.90;;;;;;4461374;26;20083;-66
2024/04/17 00:15:35;;;;;;;5.22;1.67;;;8.20;99.90;;;;;;4426476;26;20021;-66
2024/04/17 00:17:35;;;;;;;10.75;2.35;;;8.20;99.90;;;;;;4428583;26;20026;-66
2024/04/17 00:19:36;;;;;;;7.55;2.25;;;8.20;99.90;;;;;;4427050;26;20010;-66
2024/04/17 00:21:36;;;;;;;8.00;2.72;;;8.10;99.90;;;;;;4445196;26;20004;-66
2024/04/17 00:23:38;;;;;;;9.60;2.80;;;8.10;99.90;;;;;;4448919;26;20383;-66
2024/04/17 00:25:38;;;;;;;11.32;2.55;;;8.10;99.90;;;;;;4424871;26;20004;-66
2024/04/17 00:27:39;;;;;;;14.15;3.20;;;8.10;99.90;;;;;;4440288;26;20009;-66
2024/04/17 00:29:39;;;;;;;12.50;2.95;;;8.10;99.90;;;;;;4411630;26;20004;-66
2024/04/17 00:31:40;;;;;;;18.98;3.47;;;8.10;99.90;;;;;;4466707;26;20011;-66
2024/04/17 00:33:41;;;;;;;15.73;3.67;;;8.10;99.90;;;;;;4460631;26;20004;-66
2024/04/17 00:35:41;;;;;;;6.70;2.35;;;8.00;99.90;;;;;;4450902;26;20011;-66
2024/04/17 00:37:42;;;;;;;13.07;2.70;;;8.00;99.90;;;;;;4429135;26;20107;-66
2024/04/17 00:39:42;;;;;;;9.05;2.80;;;8.00;99.90;;;;;;4445064;26;20027;-66
2024/04/17 00:41:43;;;;;;;14.52;3.17;;;8.00;99.90;;;;;;4452229;26;20366;-66
2024/04/17 00:43:43;;;;;;;12.68;2.80;;;8.00;99.90;;;;;;4426876;26;20023;-66
2024/04/17 00:45:47;;;;;;;9.52;2.67;;;7.90;99.90;;;;;;4455518;26;20011;-66
2024/04/17 00:47:47;;;;;;;12.38;3.28;;;8.00;99.90;;;;;;4420597;26;20008;-66
2024/04/17 00:49:48;;;;;;;13.93;3.08;;;7.90;99.90;;;;;;4449545;26;20023;-66
2024/04/17 00:51:50;;;;;;;11.20;2.40;;;7.90;99.90;;;;;;4453702;26;20356;-66
2024/04/17 00:53:50;;;;;;;6.87;2.20;;;7.90;99.90;;;;;;4459890;26;20335;-66
2024/04/17 00:55:52;;;;;;;8.48;2.45;;;7.90;99.90;;;;;;4449829;26;20147;-66
2024/04/17 00:57:54;;;;;;;8.53;2.50;;;7.90;99.90;;;;;;4454441;26;20015;-66
2024/04/17 00:59:55;;;;;;;12.13;2.65;;;7.90;99.90;;;;;;4428974;26;20689;-66
2024/04/17 01:01:56;;;;;;;14.45;3.10;;;7.90;99.90;;;;;;4454749;26;20048;-66
2024/04/17 01:03:56;;;;;;;8.73;2.53;;;7.90;99.90;;;;;;4456031;26;20325;-66
2024/04/17 01:05:57;;;;;;;6.28;1.80;;;7.90;99.90;;;;;;4457558;26;20127;-66
2024/04/17 01:07:59;;;;;;;9.60;2.22;;;7.90;99.90;;;;;;4447887;26;20341;-66
2024/04/17 01:10:00;;;;;;;9.30;2.63;;;7.90;99.90;;;;;;4451848;26;20030;-65
2024/04/17 01:12:00;;;;;;;15.75;3.70;;;7.90;99.90;;;;;;4457585;26;20468;-63
2024/04/17 01:14:01;;;;;;;9.10;2.33;;;7.90;99.90;;;;;;4457234;26;20023;-63
2024/04/17 01:16:01;;;;;;;12.02;2.42;;;7.80;99.90;;;;;;4455221;26;20019;-64
2024/04/17 01:18:03;;;;;;;10.32;2.60;;;7.80;99.90;;;;;;4467996;26;20157;-63
2024/04/17 01:20:05;;;;;;;10.07;2.50;;;7.80;99.90;;;;;;4428530;26;20777;-63
2024/04/17 01:22:05;;;;;;;12.88;2.38;;;7.80;99.90;;;;;;4417914;26;20239;-62
2024/04/17 01:24:06;;;;;;;10.25;2.42;;;7.80;99.90;;;;;;4448034;26;20003;-63
2024/04/17 01:26:06;;;;;;;8.82;2.30;;;7.70;99.90;;;;;;4419887;26;20019;-62
2024/04/17 01:28:07;;;;;;;5.88;2.00;;;7.70;99.90;;;;;;4448524;26;20012;-62
2024/04/17 01:30:09;;;;;;;7.25;1.77;;;7.70;99.90;;;;;;4455878;26;20081;-63
2024/04/17 01:32:09;;;;;;;7.97;2.00;;;7.70;99.90;;;;;;4459552;26;20011;-62
2024/04/17 01:34:10;;;;;;;7.03;1.83;;;7.70;99.90;;;;;;4428812;26;20008;-62
2024/04/17 01:36:11;;;;;;;3.72;1.80;;;7.70;99.90;;;;;;4451758;26;20004;-62
2024/04/17 01:38:12;;;;;;;6.63;1.70;;;7.70;99.90;;;;;;4427398;26;20083;-62
2024/04/17 01:40:12;;;;;;;5.60;1.73;;;7.60;99.90;;;;;;4446357;26;20736;-63
2024/04/17 01:42:13;;;;;;;5.15;1.90;;;7.70;99.90;;;;;;4417515;26;20758;-62
2024/04/17 01:44:14;;;;;;;11.10;2.22;;;7.60;99.90;;;;;;4445031;26;20008;-62
2024/04/17 01:46:14;;;;;;;6.57;2.15;;;7.60;99.90;;;;;;4446662;26;20008;-62
2024/04/17 01:48:15;;;;;;;7.13;1.88;;;7.60;99.90;;;;;;4457119;26;20011;-62
2024/04/17 01:50:28;;;;;;;11.07;2.60;;;7.60;99.90;;;;;;4449989;26;20349;-63
2024/04/17 01:52:29;;;;;;;8.30;2.10;;;7.60;99.90;;;;;;4443952;26;20007;-62
2024/04/17 01:54:31;;;;;;;7.13;1.80;;;7.60;99.90;;;;;;4446906;26;20031;-62
2024/04/17 01:56:32;;;;;;;8.55;2.38;;;7.60;99.90;;;;;;4448057;26;20437;-63
2024/04/17 01:58:32;;;;;;;7.80;1.85;;;7.60;99.90;;;;;;4447364;26;20041;-66
2024/04/17 02:00:35;;;;;;;3.78;1.98;;;7.60;99.90;;;;;;4446285;26;20445;-63
2024/04/17 02:02:36;;;;;;;6.10;2.15;;;7.60;99.90;;;;;;4454273;26;20007;-63
2024/04/17 02:04:36;;;;;;;7.32;2.38;;;7.60;99.90;;;;;;4454038;26;20021;-63
2024/04/17 02:06:37;;;;;;;5.43;1.73;;;7.50;99.90;;;;;;4447560;26;20494;-62
2024/04/17 02:08:38;;;;;;;11.07;2.72;;;7.50;99.90;;;;;;4441034;26;20034;-63
2024/04/17 02:10:38;;;;;;;6.97;2.00;;;7.50;99.90;;;;;;4450343;26;20418;-63
2024/04/17 02:12:39;;;;;;;5.82;1.77;;;7.50;99.90;;;;;;4457897;26;20011;-63
2024/04/17 02:14:40;;;;;;;9.80;2.42;;;7.50;99.90;;;;;;4420667;26;20078;-63
2024/04/17 02:16:40;;;;;;;4.35;2.20;;;7.50;99.90;;;;;;4452469;26;20066;-62
2024/04/17 02:18:44;;;;;;;9.75;1.98;;;7.50;99.90;;;;;;4456389;26;20003;-70
2024/04/17 02:20:44;;;;;;;6.45;1.85;;;7.40;99.90;;;;;;4455746;26;20026;-66
2024/04/17 02:22:45;;;;;;;5.68;2.25;;;7.40;99.90;;;;;;4455811;26;20336;-66
2024/04/17 02:24:46;;;;;;;5.28;1.50;;;7.40;99.90;;;;;;4464084;26;20032;-66
2024/04/17 02:26:46;;;;;;;8.50;2.45;;;7.40;99.90;;;;;;4454502;26;20008;-66
2024/04/17 02:28:47;;;;;;;7.68;2.22;;;7.40;99.90;;;;;;4447721;26;20090;-66
2024/04/17 02:30:47;;;;;;;6.97;1.90;;;7.40;99.90;;;;;;4451359;26;20014;-66
2024/04/17 02:32:50;;;;;;;5.30;2.15;;;7.40;99.90;;;;;;4467439;26;20030;-66
2024/04/17 02:34:51;;;;;;;7.15;2.03;;;7.40;99.90;;;;;;4448013;26;20096;-66
2024/04/17 02:36:51;;;;;;;11.60;3.08;;;7.40;99.90;;;;;;4451716;26;20007;-66
2024/04/17 02:38:52;;;;;;;4.53;1.80;;;7.40;99.90;;;;;;4455778;26;20020;-66
2024/04/17 02:40:52;;;;;;;7.35;1.77;;;7.40;99.90;;;;;;4456069;26;20023;-66
2024/04/17 02:42:53;;;;;;;3.40;1.50;;;7.40;99.90;;;;;;4455541;26;20479;-66
2024/04/17 02:44:54;;;;;;;4.45;1.77;;;7.40;99.90;;;;;;4455001;26;20035;-66
2024/04/17 02:46:56;;;;;;;4.38;1.95;;;7.40;99.90;;;;;;4449883;26;20438;-66
2024/04/17 02:48:57;;;;;;;5.43;1.98;;;7.40;99.90;;;;;;4431784;26;20009;-66
2024/04/17 02:50:58;;;;;;;2.95;1.52;;;7.30;99.90;;;;;;4453974;26;20031;-66
2024/04/17 02:52:58;;;;;;;4.32;1.60;;;7.30;99.90;;;;;;4465095;26;20438;-66
2024/04/17 02:55:01;;;;;;;4.30;1.50;;;7.30;99.90;;;;;;4460364;26;20023;-66
2024/04/17 02:57:01;;;;;;;3.85;1.73;;;7.30;99.90;;;;;;4452776;26;20247;-68
2024/04/17 02:59:02;;;;;;;7.10;2.08;;;7.30;99.90;;;;;;4454308;26;20095;-66
2024/04/17 03:01:13;;;;;;;7.65;1.70;;;7.30;99.90;;;;;;4461756;26;20012;-66
2024/04/17 03:03:14;;;;;;;5.15;1.70;;;7.30;99.90;;;;;;4467611;26;20043;-66
2024/04/17 03:05:14;;;;;;;3.25;1.80;;;7.20;99.90;;;;;;4457183;26;20007;-66
2024/04/17 03:07:15;;;;;;;4.65;1.60;;;7.20;99.90;;;;;;4458036;26;20011;-66
2024/04/17 03:09:15;;;;;;;4.88;1.88;;;7.20;99.90;;;;;;4462010;26;20460;-66
2024/04/17 03:11:16;;;;;;;3.22;1.50;;;7.20;99.90;;;;;;4451741;26;20500;-66
2024/04/17 03:13:17;;;;;;;4.65;1.88;;;7.20;99.90;;;;;;4448338;26;20047;-66
2024/04/17 03:15:17;;;;;;;4.25;1.55;;;7.20;99.90;;;;;;4443577;26;20008;-66
2024/04/17 03:17:18;;;;;;;4.72;1.55;;;7.20;99.90;;;;;;4452078;26;20093;-66
2024/04/17 03:19:18;;;;;;;4.43;1.50;;;7.20;99.90;;;;;;4458794;26;20004;-66
2024/04/17 03:21:19;;;;;;;3.45;1.63;;;7.20;99.90;;;;;;4453651;26;20467;-66
2024/04/17 03:23:20;;;;;;;3.05;1.67;;;7.20;99.90;;;;;;4455654;26;20032;-66
2024/04/17 03:25:20;;;;;;;3.97;1.30;;;7.10;99.90;;;;;;4425287;26;20012;-66
2024/04/17 03:27:21;;;;;;;6.10;2.20;;;7.20;99.90;;;;;;4456628;26;20008;-66
2024/04/17 03:29:21;;;;;;;3.78;1.70;;;7.10;99.90;;;;;;4457604;26;20016;-70
2024/04/17 03:31:22;;;;;;;2.92;1.42;;;7.10;99.90;;;;;;4442341;26;20071;-70
2024/04/17 03:33:23;;;;;;;3.97;1.70;;;7.10;99.90;;;;;;4463635;26;20340;-70
2024/04/17 03:35:24;;;;;;;5.15;1.80;;;7.10;99.90;;;;;;4447098;26;20000;-70
2024/04/17 03:37:25;;;;;;;3.13;1.60;;;7.10;99.90;;;;;;4451909;26;20027;-70
2024/04/17 03:39:25;;;;;;;8.32;1.95;;;7.20;99.90;;;;;;4457551;26;20020;-70
2024/04/17 03:41:26;;;;;;;7.82;2.15;;;7.10;99.90;;;;;;4462285;26;20389;-70
2024/04/17 03:43:26;;;;;;;7.32;2.17;;;7.10;99.90;;;;;;4465478;26;20018;-70
2024/04/17 03:45:27;;;;;;;6.03;2.33;;;7.10;99.90;;;;;;4457596;26;20360;-70
2024/04/17 03:47:28;;;;;;;4.68;1.63;;;7.10;99.90;;;;;;4439629;26;20336;-70
2024/04/17 03:49:29;;;;;;;5.10;1.75;;;7.10;99.90;;;;;;4449203;26;20004;-70
2024/04/17 03:51:29;;;;;;;6.93;1.90;;;7.20;99.90;;;;;;4452636;26;20022;-70
2024/04/17 03:53:30;;;;;;;9.38;2.38;;;7.10;99.90;;;;;;4438993;26;20369;-70
2024/04/17 03:55:30;;;;;;;5.53;2.17;;;7.20;99.90;;;;;;4457508;26;20067;-70
2024/04/17 03:57:31;;;;;;;4.45;2.08;;;7.10;99.90;;;;;;4450668;26;20411;-70
2024/04/17 03:59:32;;;;;;;6.28;2.38;;;7.10;99.90;;;;;;4460186;26;20011;-70
2024/04/17 04:01:36;;;;;;;5.85;2.00;;;7.10;99.90;;;;;;4454196;26;20026;-70
2024/04/17 04:03:36;;;;;;;6.72;2.70;;;7.10;99.90;;;;;;4414209;26;20507;-69
2024/04/17 04:05:37;;;;;;;3.75;1.77;;;7.10;99.90;;;;;;4439832;26;20033;-70
2024/04/17 04:07:38;;;;;;;6.55;2.05;;;7.10;99.90;;;;;;4462574;26;20317;-69
2024/04/17 04:09:39;;;;;;;6.40;2.13;;;7.10;99.90;;;;;;4452153;26;20082;-70
2024/04/17 04:11:39;;;;;;;3.80;1.95;;;7.10;99.90;;;;;;4453785;26;20753;-70
2024/04/17 04:13:40;;;;;;;7.93;2.90;;;7.10;99.90;;;;;;4456101;26;20356;-70
2024/04/17 04:15:40;;;;;;;5.50;2.58;;;7.10;99.90;;;;;;4456889;26;20004;-69
2024/04/17 04:17:41;;;;;;;4.95;2.47;;;7.10;99.90;;;;;;4421444;26;20008;-69
2024/04/17 04:19:43;;;;;;;5.75;2.15;;;7.10;99.90;;;;;;4449805;26;20468;-69
2024/04/17 04:21:43;;;;;;;4.22;1.70;;;7.10;99.90;;;;;;4451773;26;20019;-69
2024/04/17 04:23:47;;;;;;;6.05;2.30;;;7.10;99.90;;;;;;4446823;26;20008;-70
2024/04/17 04:25:48;;;;;;;6.03;2.17;;;7.10;99.90;;;;;;4462826;26;20008;-70
2024/04/17 04:27:48;;;;;;;5.55;1.92;;;7.10;99.90;;;;;;4445057;26;20023;-70
2024/04/17 04:29:49;;;;;;;4.60;1.90;;;7.00;99.90;;;;;;4430238;26;20407;-69
2024/04/17 04:31:50;;;;;;;5.32;2.03;;;7.10;99.90;;;;;;4451458;26;20004;-69
2024/04/17 04:33:50;;;;;;;5.75;2.25;;;7.00;99.90;;;;;;4456380;26;20016;-70
2024/04/17 04:35:51;;;;;;;5.47;2.08;;;7.00;99.90;;;;;;4450543;26;20398;-69
2024/04/17 04:37:51;;;;;;;4.70;2.28;;;7.00;99.90;;;;;;4420142;26;20009;-69
2024/04/17 04:39:52;;;;;;;5.15;2.45;;;7.00;99.90;;;;;;4460398;26;20012;-71
2024/04/17 04:41:53;;;;;;;6.35;2.40;;;7.00;99.90;;;;;;4462911;26;20023;-71
2024/04/17 04:43:54;;;;;;;5.47;2.72;;;7.00;99.90;;;;;;4456122;26;20000;-72
2024/04/17 04:45:55;;;;;;;7.18;2.95;;;7.00;99.90;;;;;;4422697;26;20341;-71
2024/04/17 04:47:56;;;;;;;7.40;2.58;;;7.00;99.90;;;;;;4416455;26;20009;-73
2024/04/17 04:49:56;;;;;;;7.72;2.83;;;7.00;99.90;;;;;;4453577;26;20019;-73
2024/04/17 04:51:57;;;;;;;11.07;3.17;;;7.00;99.90;;;;;;4447116;26;20008;-71
2024/04/17 04:53:57;;;;;;;10.13;3.15;;;7.00;99.90;;;;;;4453052;26;20055;-69
2024/04/17 04:56:02;;;;;;;7.35;2.75;;;7.00;99.90;;;;;;4418618;26;20076;-69
2024/04/17 04:58:03;;;;;;;9.05;2.97;;;7.00;99.90;;;;;;4390006;26;20116;-69
2024/04/17 05:00:04;;;;;;;14.77;3.53;;;7.00;99.90;;;;;;4445403;26;20004;-68
2024/04/17 05:02:04;;;;;;;4.07;2.20;;;7.00;99.90;;;;;;4451146;26;20012;-69
2024/04/17 05:04:05;;;;;;;10.15;2.83;;;7.00;99.90;;;;;;4467874;26;20032;-69
2024/04/17 05:06:06;;;;;;;5.22;2.50;;;7.00;99.90;;;;;;4458560;26;20435;-69
2024/04/17 05:08:07;;;;;;;8.18;2.67;;;7.10;99.90;;;;;;4450826;26;20082;-68
2024/04/17 05:10:07;;;;;;;7.40;2.83;;;7.10;99.90;;;;;;4462940;26;20043;-69
2024/04/17 05:12:08;;;;;;;6.95;2.90;;;7.10;99.90;;;;;;4445752;26;20003;-68
2024/04/17 05:14:08;;;;;;;7.22;2.92;;;7.10;99.90;;;;;;4455401;26;20365;-68
2024/04/17 05:16:09;;;;;;;7.10;3.22;;;7.20;99.90;;;;;;4449654;26;20019;-68
2024/04/17 05:18:10;;;;;;;5.85;2.22;;;7.20;99.90;;;;;;4455022;26;20428;-66
2024/04/17 05:20:10;;;;;;;7.57;3.40;;;7.20;99.90;;;;;;4454886;26;20015;-67
2024/04/17 05:22:11;;;;;;;9.15;3.00;;;7.20;99.90;;;;;;4449669;26;20004;-71
2024/04/17 05:24:12;;;;;;;7.05;2.60;;;7.20;99.90;;;;;;4450185;26;20008;-70
2024/04/17 05:26:12;;;;;;;9.73;3.10;;;7.30;99.90;;;;;;4455022;26;20023;-71
2024/04/17 05:28:13;;;;;;;9.35;2.83;;;7.30;99.90;;;;;;4449352;26;20008;-71
2024/04/17 05:30:13;;;;;;;6.90;3.28;;;7.30;99.90;;;;;;4449222;26;20414;-72
2024/04/17 05:32:14;;;;;;;6.20;3.05;;;7.30;99.90;;;;;;4450731;26;20078;-72
2024/04/17 05:34:15;;;;;;;7.80;3.42;;;7.30;99.90;;;;;;4465502;26;20009;-73
2024/04/17 05:36:15;;;;;;;12.27;4.30;;;7.40;99.90;;;;;;4423498;26;20008;-72
2024/04/17 05:38:16;;;;;;;7.25;3.45;;;7.40;99.90;;;;;;4455526;26;20019;-71
2024/04/17 05:40:16;;;;;;;6.78;3.15;;;7.40;99.90;;;;;;4442250;26;20000;-72
2024/04/17 05:42:17;;;;;;;5.90;3.10;;;7.40;99.90;;;;;;4456337;26;20031;-72
2024/04/17 05:44:18;;;;;;;9.98;3.65;;;7.50;99.90;;;;;;4459045;26;20007;-72
2024/04/17 05:46:18;;;;;;;10.18;3.78;;;7.50;99.90;;;;;;4420000;26;20119;-71
2024/04/17 05:48:19;;;;;;;11.13;3.30;;;7.50;99.90;;;;;;4413339;26;20004;-68
2024/04/17 05:50:19;;;;;;;7.90;3.22;;;7.50;99.90;;;;;;4448309;26;20004;-61
2024/04/17 05:52:20;;;;;;;9.23;3.58;;;7.50;99.90;;;;;;4451861;26;20026;-62
2024/04/17 05:54:21;;;;;;;8.95;3.78;;;7.50;99.90;;;;;;4421561;26;20469;-62
2024/04/17 05:56:21;;;;;;;7.35;2.92;;;7.50;99.90;;;;;;4448846;26;20020;-62
2024/04/17 05:58:22;;;;;;;5.85;3.05;;;7.50;99.90;;;;;;4449128;26;20005;-62
2024/04/17 06:00:23;;;;;;;8.50;3.53;;;7.60;99.90;;;;;;4443461;26;20044;-62
2024/04/17 06:02:23;;;;;;;8.32;3.65;;;7.60;99.90;;;;;;4447109;26;20008;-62
2024/04/17 06:04:24;;;;;;;10.95;3.33;;;7.60;99.90;;;;;;4447188;26;20024;-62
2024/04/17 06:06:24;;;;;;;13.57;3.80;;;7.70;99.90;;;;;;4446656;26;20034;-61
2024/04/17 06:08:25;;;;;;;9.68;3.53;;;7.70;99.90;;;;;;4448490;26;20043;-62
2024/04/17 06:10:26;;;;;;;10.43;3.60;;;7.70;99.90;;;;;;4445863;26;20019;-62
2024/04/17 06:12:26;;;;;;;8.45;3.90;;;7.70;99.90;;;;;;4445892;26;20360;-61
2024/04/17 06:14:27;;;;;;;5.72;3.08;;;7.80;99.90;;;;;;4438056;26;20016;-72
2024/04/17 06:16:28;;;;;;;8.70;3.72;;;7.80;99.90;;;;;;4411945;26;20055;-77
2024/04/17 06:18:28;;;;;;;8.48;3.63;;;7.80;99.90;;;;;;4446049;26;20008;-65
2024/04/17 06:20:29;;;;;;;7.70;3.38;;;7.90;99.90;;;;;;4415730;26;20087;-61
2024/04/17 06:22:30;;;;;;;6.90;2.92;;;7.90;99.90;;;;;;4457461;26;20459;-61
2024/04/17 06:24:31;;;;;;;4.82;2.40;;;7.90;99.90;;;;;;4428391;26;20017;-65
2024/04/17 06:26:31;;;;;;;8.05;3.05;;;7.90;99.90;;;;;;4448110;26;20004;-65
2024/04/17 06:28:32;;;;;;;4.28;2.38;;;7.90;99.90;;;;;;4446657;26;20012;-67
2024/04/17 06:30:33;;;;;;;6.95;3.22;;;7.90;99.90;;;;;;4445230;26;20776;-67
2024/04/17 06:32:33;;;;;;;7.20;3.33;;;8.00;99.90;;;;;;4446194;26;20008;-67
2024/04/17 06:34:34;;;;;;;9.43;3.58;;;8.00;99.90;;;;;;4416685;26;20005;-67
2024/04/17 06:36:35;;;;;;;8.40;3.55;;;8.00;99.90;;;;;;4459929;26;20475;-67
2024/04/17 06:38:35;;;;;;;6.38;3.35;;;8.00;99.90;;;;;;4469701;26;20016;-67
2024/04/17 06:40:36;;;;;;;7.88;3.40;;;8.00;99.90;;;;;;4445799;26;20092;-67
2024/04/17 06:42:36;;;;;;;7.93;4.15;;;8.00;99.90;;;;;;4359301;27;20022;-67
2024/04/17 06:44:38;;;;;;;6.80;3.88;;;8.00;99.90;;;;;;4446194;26;20015;-67
2024/04/17 06:46:39;;;;;;;5.35;3.33;;;8.00;99.90;;;;;;4444352;26;20008;-67
2024/04/17 06:48:40;;;;;;;5.80;3.40;;;8.00;99.90;;;;;;4454244;26;20004;-67
2024/04/17 06:50:41;;;;;;;7.68;4.05;;;8.00;99.90;;;;;;4445917;26;20018;-66
2024/04/17 06:52:41;;;;;;;9.85;3.70;;;8.00;99.90;;;;;;4415846;26;20001;-66
2024/04/17 06:54:42;;;;;;;6.15;3.30;;;7.90;99.90;;;;;;4446164;26;20019;-66
2024/04/17 06:56:42;;;;;;;5.40;3.08;;;7.90;99.90;;;;;;4448548;26;20012;-66
2024/04/17 06:58:43;;;;;;;5.75;3.53;;;7.90;99.90;;;;;;4423736;26;20437;-71
2024/04/17 07:00:43;;;;;;;5.15;3.03;;;7.80;99.90;;;;;;4413862;26;20293;-71
2024/04/17 07:02:44;;;;;;;6.32;2.53;;;7.80;99.90;;;;;;4405164;26;20334;-66
2024/04/17 07:04:45;;;;;;;6.28;3.22;;;7.80;99.90;;;;;;4414673;26;20044;-63
2024/04/17 07:06:45;;;;;;;5.55;2.45;;;7.90;99.90;;;;;;4446003;26;20012;-68
2024/04/17 07:08:46;;;;;;;4.38;2.67;;;7.90;99.90;;;;;;4448003;26;21710;-75
2024/04/17 07:10:47;;;;;;;5.82;2.63;;;7.90;99.90;;;;;;4446170;26;20040;-77
2024/04/17 07:12:48;;;;;;;4.63;2.50;;;8.00;99.90;;;;;;4415309;26;20449;-62
2024/04/17 07:14:48;;;;;;;5.88;2.90;;;8.00;99.90;;;;;;4445726;26;20036;-67
2024/04/17 07:16:49;;;;;;;3.92;2.47;;;8.00;99.90;;;;;;4386854;26;20016;-69
2024/04/17 07:18:50;;;;;;;2.75;2.00;;;8.10;99.90;;;;;;4442418;26;20348;-68
2024/04/17 07:20:50;;;;;;;4.05;2.17;;;8.10;99.90;;;;;;4447626;26;20023;-69
2024/04/17 07:22:51;;;;;;;4.57;2.22;;;8.20;99.90;;;;;;4445328;26;20471;-67
2024/04/17 07:24:52;;;;;;;3.42;2.22;;;8.20;99.90;;;;;;4429567;26;20098;-72
2024/04/17 07:26:53;;;;;;;3.53;2.47;;;8.20;99.90;;;;;;4451214;26;20023;-67
2024/04/17 07:28:54;;;;;;;4.88;3.03;;;8.30;99.90;;;;;;4438586;26;20521;-68
2024/04/17 07:30:54;;;;;;;5.35;2.75;;;8.30;99.90;;;;;;4436181;26;20000;-61
2024/04/17 07:32:55;;;;;;;5.35;3.25;;;8.30;99.90;;;;;;4444654;26;20492;-61
2024/04/17 07:34:56;;;;;;;7.72;4.10;;;8.30;99.90;;;;;;4447821;26;20016;-67
2024/04/17 07:36:56;;;;;;;4.70;3.13;;;8.30;99.90;;;;;;4420816;26;20412;-76
2024/04/17 07:38:58;;;;;;;3.67;2.70;;;8.30;99.90;;;;;;4417303;26;20048;-67
2024/04/17 07:41:02;;;;;;;2.97;2.40;;;8.30;99.90;;;;;;4447445;26;20027;-75
2024/04/17 07:43:02;;;;;;;9.27;3.75;;;8.30;99.90;;;;;;4448678;26;20008;-69
2024/04/17 07:45:03;;;;;;;6.25;3.30;;;8.30;99.90;;;;;;4422641;26;20035;-70
2024/04/17 07:47:04;;;;;;;5.20;3.40;;;8.40;99.90;;;;;;4452503;26;20776;-66
2024/04/17 07:49:05;;;;;;;4.97;2.88;;;8.40;99.90;;;;;;4418510;26;20017;-67
2024/04/17 07:51:06;;;;;;;5.22;3.25;;;8.50;99.90;;;;;;4446292;26;20016;-64
2024/04/17 07:53:06;;;;;;;5.55;3.70;;;8.50;99.90;;;;;;4450196;26;20475;-72
2024/04/17 07:55:07;;;;;;;4.50;2.63;;;8.50;99.90;;;;;;4445367;26;20008;-71
2024/04/17 07:57:08;;;;;;;6.82;3.40;;;8.60;99.90;;;;;;4468030;26;20084;-72
2024/04/17 07:59:09;;;;;;;8.57;3.35;;;8.60;99.90;;;;;;4467151;26;20008;-71
2024/04/17 08:01:12;;;;;;;5.32;2.50;;;8.70;99.90;;;;;;4446945;26;20047;-68
2024/04/17 08:03:13;;;;;;;3.85;2.33;;;8.70;99.90;;;;;;4440539;26;20452;-67
2024/04/17 08:05:14;;;;;;;4.70;2.33;;;8.80;99.90;;;;;;4447819;26;20001;-66
2024/04/17 08:07:15;;;;;;;3.55;2.28;;;8.80;99.90;;;;;;4454408;26;20019;-67
2024/04/17 08:09:16;;;;;;;2.50;1.80;;;8.90;99.90;;;;;;4449094;26;20008;-68
2024/04/17 08:11:20;;;;;;;3.90;2.42;;;9.00;99.90;;;;;;4414219;26;20017;-67
2024/04/17 08:13:20;;;;;;;7.20;2.22;;;9.10;99.90;;;;;;4446063;26;20410;-76
2024/04/17 08:15:21;;;;;;;3.30;2.20;;;9.20;99.90;;;;;;4428905;26;21480;-66
2024/04/17 08:17:21;;;;;;;5.68;1.85;;;9.30;99.90;;;;;;4458140;26;20088;-66
2024/04/17 08:19:22;;;;;;;3.42;1.90;;;9.30;99.90;;;;;;4449758;26;20019;-66
2024/04/17 08:21:23;;;;;;;5.65;2.03;;;9.40;99.90;;;;;;4447589;26;20012;-66
2024/04/17 08:23:27;;;;;;;4.18;2.10;;;9.40;99.90;;;;;;4422694;26;20478;-66
2024/04/17 08:25:28;;;;;;;3.33;1.73;;;9.40;99.90;;;;;;4431453;26;20023;-66
2024/04/17 08:27:29;;;;;;;2.15;1.48;;;9.50;99.90;;;;;;4455818;26;20008;-66
2024/04/17 08:29:29;;;;;;;4.43;2.00;;;9.50;99.90;;;;;;4444083;26;20031;-66
2024/04/17 08:31:30;;;;;;;5.10;2.10;;;9.50;99.90;;;;;;4447257;26;20008;-66
2024/04/17 08:33:30;;;;;;;3.05;1.70;;;9.60;99.90;;;;;;4449151;26;20508;-66
2024/04/17 08:35:35;;;;;;;5.22;2.05;;;9.60;99.90;;;;;;4419748;26;20407;-66
2024/04/17 08:37:36;;;;;;;4.30;1.30;;;9.70;99.90;;;;;;4420972;26;20087;-66
2024/04/17 08:39:37;;;;;;;5.10;1.75;;;9.70;99.90;;;;;;4412255;26;20124;-66
2024/04/17 08:41:47;;;;;;;2.92;1.40;;;9.70;99.90;;;;;;4452666;26;20085;-65
2024/04/17 08:43:49;;;;;;;3.33;1.42;;;9.80;99.90;;;;;;4448313;26;20015;-66
2024/04/17 08:45:53;;;;;;;3.15;1.42;;;9.80;99.90;;;;;;4446957;26;20012;-66
2024/04/17 08:47:55;;;;;;;2.28;1.05;;;9.90;99.90;;;;;;4467236;26;20363;-66
2024/04/17 08:49:57;;;;;;;8.00;1.85;;;9.90;99.90;;;;;;4390947;26;20075;-66
2024/04/17 08:51:58;;;;;;;4.47;1.53;;;10.00;99.90;;;;;;4447677;26;20325;-66
2024/04/17 08:54:00;;;;;;;2.42;0.90;;;9.90;99.90;;;;;;4443290;26;20012;-66
2024/04/17 08:56:01;;;;;;;4.70;1.23;;;9.90;99.90;;;;;;4428594;26;20004;-66
2024/04/17 08:58:02;;;;;;;5.78;1.50;;;9.90;99.90;;;;;;4450962;26;20000;-66
2024/04/17 09:00:04;;;;;;;5.53;1.40;;;9.90;99.90;;;;;;4417059;26;20116;-67
2024/04/17 09:02:13;;;;;;;7.00;1.80;;;10.00;99.90;;;;;;4446995;26;20550;-66
2024/04/17 09:04:14;;;;;;;3.95;1.42;;;10.00;99.90;;;;;;4416658;26;20637;-66
2024/04/17 09:06:16;;;;;;;4.03;1.40;;;10.10;99.90;;;;;;4445952;26;20045;-66
2024/04/17 09:08:18;;;;;;;3.92;1.48;;;10.10;99.90;;;;;;4448208;26;20301;-66
2024/04/17 09:10:19;;;;;;;4.82;1.50;;;10.20;99.90;;;;;;4446692;26;20004;-66
2024/04/17 09:12:21;;;;;;;5.07;1.17;;;10.20;99.90;;;;;;4446975;26;20044;-66
2024/04/17 09:14:22;;;;;;;6.18;1.80;;;10.20;99.90;;;;;;4448454;26;20344;-66
2024/04/17 09:16:23;;;;;;;5.60;1.50;;;10.30;99.90;;;;;;4446821;26;20004;-66
2024/04/17 09:18:27;;;;;;;3.38;1.00;;;10.30;99.90;;;;;;4421957;26;20449;-74
2024/04/17 09:20:28;;;;;;;5.57;1.33;;;10.30;99.90;;;;;;4403979;26;19997;-76
2024/04/17 09:22:29;;;;;;;7.35;1.77;;;10.40;99.90;;;;;;4405701;26;20041;-77
2024/04/17 09:24:38;;;;;;;4.03;1.20;;;10.40;99.90;;;;;;4417389;26;20001;-66
2024/04/17 09:26:40;;;;;;;4.45;1.08;;;10.30;99.90;;;;;;4429610;26;20009;-61
2024/04/17 09:28:40;;;;;;;5.75;0.90;;;10.30;99.90;;;;;;4416162;26;20025;-66
2024/04/17 09:30:41;;;;;;;5.30;1.35;;;10.40;99.90;;;;;;4415037;26;20018;-66
2024/04/17 09:32:42;;;;;;;3.33;1.30;;;10.50;99.90;;;;;;4446383;26;20435;-67
2024/04/17 09:34:43;;;;;;;5.25;1.50;;;10.60;99.90;;;;;;4446947;26;20012;-66
2024/04/17 09:36:50;;;;;;;5.07;1.10;;;10.70;99.90;;;;;;4418752;26;20489;-67
2024/04/17 09:38:50;;;;;;;4.53;1.30;;;10.70;99.90;;;;;;4460432;26;20459;-66
2024/04/17 09:40:52;;;;;;;2.58;1.02;;;10.70;99.90;;;;;;4445282;26;20008;-66
2024/04/17 09:42:56;;;;;;;3.07;1.40;;;10.70;99.90;;;;;;4417428;26;20369;-66
2024/04/17 09:45:00;;;;;;;4.22;1.45;;;10.80;99.90;;;;;;4446309;26;20230;-66
2024/04/17 09:47:04;;;;;;;6.50;1.20;;;10.90;99.90;;;;;;4450399;26;20080;-66
2024/04/17 09:49:19;;;;;;;6.43;1.70;;;11.00;99.90;;;;;;4444242;26;20011;-66
2024/04/17 09:51:21;;;;;;;5.78;0.77;;;11.10;99.90;;;;;;4444828;26;20012;-66
2024/04/17 09:53:24;;;;;;;6.00;1.15;;;11.20;99.90;;;;;;4384175;26;20006;-66
2024/04/17 09:55:26;;;;;;;4.47;1.35;;;11.40;99.90;;;;;;4441797;26;20055;-66
2024/04/17 09:57:28;;;;;;;4.85;0.98;;;11.50;99.90;;;;;;4448359;26;20004;-66
2024/04/17 09:59:30;;;;;;;8.10;1.60;;;11.50;99.90;;;;;;4446218;26;20008;-66
2024/04/17 10:01:32;;;;;;;3.60;1.10;;;11.60;99.90;;;;;;4444348;26;20008;-66
2024/04/17 10:03:33;;;;;;;6.35;1.45;;;11.70;99.90;;;;;;4445261;26;20333;-66
2024/04/17 10:05:34;;;;;;;2.38;0.90;;;11.80;99.90;;;;;;4418753;26;20710;-66
2024/04/17 10:07:37;;;;;;;3.78;1.10;;;11.80;99.90;;;;;;4455303;26;20012;-65
2024/04/17 10:09:41;;;;;;;4.85;1.65;;;11.90;99.90;;;;;;4446831;26;20151;-66
2024/04/17 10:11:43;;;;;;;3.33;1.20;;;12.00;99.90;;;;;;4444980;26;20613;-66
2024/04/17 10:13:47;;;;;;;2.70;0.90;;;12.10;99.90;;;;;;4446264;26;20436;-65
2024/04/17 10:15:48;;;;;;;4.35;0.88;;;12.10;99.90;;;;;;4442573;26;20018;-66
2024/04/17 10:17:49;;;;;;;5.05;1.50;;;12.10;99.90;;;;;;4449260;26;20089;-66
2024/04/17 10:19:52;;;;;;;2.88;1.30;;;12.20;99.90;;;;;;4446801;26;20019;-66
2024/04/17 10:21:54;;;;;;;3.10;1.30;;;12.30;99.90;;;;;;4411164;26;20012;-66
2024/04/17 10:24:09;;;;;;;4.15;1.20;;;12.30;99.90;;;;;;4446889;26;20011;-65
2024/04/17 10:26:13;;;;;;;4.25;1.20;;;12.40;99.90;;;;;;4459574;26;20011;-66
2024/04/17 10:28:17;;;;;;;3.30;0.93;;;12.40;99.90;;;;;;4439774;26;20337;-66
2024/04/17 10:30:18;;;;;;;4.88;1.48;;;12.40;99.90;;;;;;4443337;26;20032;-60
2024/04/17 10:32:19;;;;;;;2.70;1.05;;;12.40;99.90;;;;;;4443864;26;20328;-60
2024/04/17 10:34:20;;;;;;;3.90;1.30;;;12.40;99.90;;;;;;4449381;26;20012;-60
2024/04/17 10:36:20;;;;;;;2.53;1.20;;;12.40;99.90;;;;;;4445870;26;20137;-60
2024/04/17 10:38:29;;;;;;;3.50;1.27;;;12.40;99.90;;;;;;4463068;26;20377;-60